sensor_id;sensor_type;location;lat;lon;timestamp;temperature;humidity
70244;DHT22;57634;51.136;17.024;2023-07-13T00:02:53;23.70;65.00
70244;DHT22;57634;51.136;17.024;2023-07-13T00:06:00;23.70;65.10
70244;DHT22;57634;51.136;17.024;2023-07-13T00:09:02;23.70;65.10
70244;DHT22;57634;51.136;17.024;2023-07-13T00:12:04;23.70;65.20
70244;DHT22;57634;51.136;17.024;2023-07-13T00:18:24;23.70;65.10
70244;DHT22;57634;51.136;17.024;2023-07-13T00:21:25;23.70;65.10
70244;DHT22;57634;51.136;17.024;2023-07-13T00:24:27;23.70;65.00
70244;DHT22;57634;51.136;17.024;2023-07-13T00:27:55;23.60;65.00
70244;DHT22;57634;51.136;17.024;2023-07-13T00:30:56;23.60;65.10
70244;DHT22;57634;51.136;17.024;2023-07-13T00:33:57;23.40;65.30
70244;DHT22;57634;51.136;17.024;2023-07-13T00:37:00;23.30;66.00
70244;DHT22;57634;51.136;17.024;2023-07-13T00:40:04;23.20;66.20
70244;DHT22;57634;51.136;17.024;2023-07-13T00:46:29;23.20;66.30
70244;DHT22;57634;51.136;17.024;2023-07-13T00:49:32;23.20;66.40
70244;DHT22;57634;51.136;17.024;2023-07-13T00:53:00;23.20;66.40
70244;DHT22;57634;51.136;17.024;2023-07-13T00:56:03;23.20;66.50
70244;DHT22;57634;51.136;17.024;2023-07-13T00:59:07;23.20;66.60
70244;DHT22;57634;51.136;17.024;2023-07-13T01:02:10;23.20;66.50
70244;DHT22;57634;51.136;17.024;2023-07-13T01:05:15;23.20;66.50
70244;DHT22;57634;51.136;17.024;2023-07-13T01:08:17;23.10;66.50
70244;DHT22;57634;51.136;17.024;2023-07-13T01:11:21;23.00;66.70
70244;DHT22;57634;51.136;17.024;2023-07-13T01:14:23;23.00;67.00
70244;DHT22;57634;51.136;17.024;2023-07-13T01:17:24;22.90;67.30
70244;DHT22;57634;51.136;17.024;2023-07-13T01:20:25;22.90;67.50
70244;DHT22;57634;51.136;17.024;2023-07-13T01:23:28;22.80;67.70
70244;DHT22;57634;51.136;17.024;2023-07-13T01:26:57;22.80;67.60
70244;DHT22;57634;51.136;17.024;2023-07-13T01:29:58;22.80;67.90
70244;DHT22;57634;51.136;17.024;2023-07-13T01:33:04;22.70;68.20
70244;DHT22;57634;51.136;17.024;2023-07-13T01:36:10;22.70;68.30
70244;DHT22;57634;51.136;17.024;2023-07-13T01:39:12;22.60;68.50
70244;DHT22;57634;51.136;17.024;2023-07-13T01:42:13;22.60;68.60
70244;DHT22;57634;51.136;17.024;2023-07-13T01:45:15;22.50;69.00
70244;DHT22;57634;51.136;17.024;2023-07-13T01:48:16;22.40;69.30
70244;DHT22;57634;51.136;17.024;2023-07-13T01:51:20;22.30;69.70
70244;DHT22;57634;51.136;17.024;2023-07-13T01:54:21;22.10;70.30
70244;DHT22;57634;51.136;17.024;2023-07-13T01:57:23;22.00;70.90
70244;DHT22;57634;51.136;17.024;2023-07-13T02:00:25;21.90;71.50
70244;DHT22;57634;51.136;17.024;2023-07-13T02:03:52;21.80;72.00
70244;DHT22;57634;51.136;17.024;2023-07-13T02:06:54;21.80;72.40
70244;DHT22;57634;51.136;17.024;2023-07-13T02:09:56;21.80;72.50
70244;DHT22;57634;51.136;17.024;2023-07-13T02:12:57;21.90;72.60
70244;DHT22;57634;51.136;17.024;2023-07-13T02:15:59;21.90;72.50
70244;DHT22;57634;51.136;17.024;2023-07-13T02:19:00;21.90;72.40
70244;DHT22;57634;51.136;17.024;2023-07-13T02:22:02;22.00;72.30
70244;DHT22;57634;51.136;17.024;2023-07-13T02:25:04;22.00;72.20
70244;DHT22;57634;51.136;17.024;2023-07-13T02:28:06;22.00;72.20
70244;DHT22;57634;51.136;17.024;2023-07-13T02:31:11;21.90;72.00
70244;DHT22;57634;51.136;17.024;2023-07-13T02:34:12;21.90;71.90
70244;DHT22;57634;51.136;17.024;2023-07-13T02:37:13;21.90;72.00
70244;DHT22;57634;51.136;17.024;2023-07-13T02:40:15;21.90;72.00
70244;DHT22;57634;51.136;17.024;2023-07-13T02:43:42;21.80;72.00
70244;DHT22;57634;51.136;17.024;2023-07-13T02:46:44;21.80;72.20
70244;DHT22;57634;51.136;17.024;2023-07-13T02:49:46;21.70;72.40
70244;DHT22;57634;51.136;17.024;2023-07-13T02:52:47;21.70;72.60
70244;DHT22;57634;51.136;17.024;2023-07-13T02:55:48;21.70;72.70
70244;DHT22;57634;51.136;17.024;2023-07-13T02:58:50;21.60;72.70
70244;DHT22;57634;51.136;17.024;2023-07-13T03:01:51;21.70;72.80
70244;DHT22;57634;51.136;17.024;2023-07-13T03:04:54;21.70;72.80
70244;DHT22;57634;51.136;17.024;2023-07-13T03:07:56;21.70;72.50
70244;DHT22;57634;51.136;17.024;2023-07-13T03:11:09;21.80;72.30
70244;DHT22;57634;51.136;17.024;2023-07-13T03:14:07;21.80;72.10
70244;DHT22;57634;51.136;17.024;2023-07-13T03:17:09;21.90;71.90
70244;DHT22;57634;51.136;17.024;2023-07-13T03:20:36;21.90;71.70
70244;DHT22;57634;51.136;17.024;2023-07-13T03:23:38;22.00;71.40
70244;DHT22;57634;51.136;17.024;2023-07-13T03:26:39;22.10;71.10
70244;DHT22;57634;51.136;17.024;2023-07-13T03:29:40;22.20;70.80
70244;DHT22;57634;51.136;17.024;2023-07-13T03:32:42;22.20;70.40
70244;DHT22;57634;51.136;17.024;2023-07-13T03:35:43;22.30;70.10
70244;DHT22;57634;51.136;17.024;2023-07-13T03:38:49;22.40;69.60
70244;DHT22;57634;51.136;17.024;2023-07-13T03:41:51;22.50;69.30
70244;DHT22;57634;51.136;17.024;2023-07-13T03:44:52;22.60;69.00
70244;DHT22;57634;51.136;17.024;2023-07-13T03:47:54;22.60;68.50
70244;DHT22;57634;51.136;17.024;2023-07-13T03:50:55;22.70;68.30
70244;DHT22;57634;51.136;17.024;2023-07-13T03:53:57;22.70;68.10
70244;DHT22;57634;51.136;17.024;2023-07-13T03:56:58;22.80;68.00
70244;DHT22;57634;51.136;17.024;2023-07-13T04:00:27;22.80;67.70
70244;DHT22;57634;51.136;17.024;2023-07-13T04:03:29;22.90;67.50
70244;DHT22;57634;51.136;17.024;2023-07-13T04:06:35;22.90;67.10
70244;DHT22;57634;51.136;17.024;2023-07-13T04:09:36;23.00;66.90
70244;DHT22;57634;51.136;17.024;2023-07-13T04:12:38;23.10;66.60
70244;DHT22;57634;51.136;17.024;2023-07-13T04:15:39;23.10;66.10
70244;DHT22;57634;51.136;17.024;2023-07-13T04:18:41;23.10;65.70
70244;DHT22;57634;51.136;17.024;2023-07-13T04:21:43;23.10;65.70
70244;DHT22;57634;51.136;17.024;2023-07-13T04:24:44;23.00;65.50
70244;DHT22;57634;51.136;17.024;2023-07-13T04:27:45;22.90;65.30
70244;DHT22;57634;51.136;17.024;2023-07-13T04:30:46;22.70;64.70
70244;DHT22;57634;51.136;17.024;2023-07-13T04:33:48;22.40;63.60
70244;DHT22;57634;51.136;17.024;2023-07-13T04:36:51;22.00;63.80
70244;DHT22;57634;51.136;17.024;2023-07-13T04:40:19;21.70;64.10
70244;DHT22;57634;51.136;17.024;2023-07-13T04:43:21;21.40;65.20
70244;DHT22;57634;51.136;17.024;2023-07-13T04:46:22;21.10;66.30
70244;DHT22;57634;51.136;17.024;2023-07-13T04:49:24;20.80;67.20
70244;DHT22;57634;51.136;17.024;2023-07-13T04:52:25;20.50;68.00
70244;DHT22;57634;51.136;17.024;2023-07-13T04:55:27;20.20;69.00
70244;DHT22;57634;51.136;17.024;2023-07-13T04:58:31;19.90;69.90
70244;DHT22;57634;51.136;17.024;2023-07-13T05:01:34;19.60;70.70
70244;DHT22;57634;51.136;17.024;2023-07-13T05:04:35;19.50;71.60
70244;DHT22;57634;51.136;17.024;2023-07-13T05:07:37;19.40;71.90
70244;DHT22;57634;51.136;17.024;2023-07-13T05:10:39;19.40;72.30
70244;DHT22;57634;51.136;17.024;2023-07-13T05:13:40;19.40;72.50
70244;DHT22;57634;51.136;17.024;2023-07-13T05:16:41;19.50;72.20
70244;DHT22;57634;51.136;17.024;2023-07-13T05:20:11;19.40;72.10
70244;DHT22;57634;51.136;17.024;2023-07-13T05:23:13;19.40;72.60
70244;DHT22;57634;51.136;17.024;2023-07-13T05:26:14;19.50;72.50
70244;DHT22;57634;51.136;17.024;2023-07-13T05:29:15;19.40;72.10
70244;DHT22;57634;51.136;17.024;2023-07-13T05:32:17;19.30;72.40
70244;DHT22;57634;51.136;17.024;2023-07-13T05:35:19;19.20;73.00
70244;DHT22;57634;51.136;17.024;2023-07-13T05:38:21;19.00;73.60
70244;DHT22;57634;51.136;17.024;2023-07-13T05:41:23;18.90;74.10
70244;DHT22;57634;51.136;17.024;2023-07-13T05:44:24;18.90;74.40
70244;DHT22;57634;51.136;17.024;2023-07-13T05:47:26;19.00;74.00
70244;DHT22;57634;51.136;17.024;2023-07-13T05:50:27;19.00;73.90
70244;DHT22;57634;51.136;17.024;2023-07-13T05:53:28;19.10;73.90
70244;DHT22;57634;51.136;17.024;2023-07-13T05:56:30;19.10;73.90
70244;DHT22;57634;51.136;17.024;2023-07-13T05:59:32;19.20;73.60
70244;DHT22;57634;51.136;17.024;2023-07-13T06:02:58;19.20;73.60
70244;DHT22;57634;51.136;17.024;2023-07-13T06:06:00;19.10;74.00
70244;DHT22;57634;51.136;17.024;2023-07-13T06:09:02;19.20;74.50
70244;DHT22;57634;51.136;17.024;2023-07-13T06:12:04;19.40;74.60
70244;DHT22;57634;51.136;17.024;2023-07-13T06:15:07;19.50;74.10
70244;DHT22;57634;51.136;17.024;2023-07-13T06:18:09;19.70;74.10
70244;DHT22;57634;51.136;17.024;2023-07-13T06:24:19;20.90;75.10
70244;DHT22;57634;51.136;17.024;2023-07-13T06:27:20;21.80;72.50
70244;DHT22;57634;51.136;17.024;2023-07-13T06:30:22;22.60;69.50
70244;DHT22;57634;51.136;17.024;2023-07-13T06:33:24;23.00;67.10
70244;DHT22;57634;51.136;17.024;2023-07-13T06:36:25;23.20;65.70
70244;DHT22;57634;51.136;17.024;2023-07-13T06:39:52;23.40;64.80
70244;DHT22;57634;51.136;17.024;2023-07-13T06:42:53;23.50;64.00
70244;DHT22;57634;51.136;17.024;2023-07-13T06:45:55;23.50;63.30
70244;DHT22;57634;51.136;17.024;2023-07-13T06:48:57;23.40;63.30
70244;DHT22;57634;51.136;17.024;2023-07-13T06:51:58;23.20;63.50
70244;DHT22;57634;51.136;17.024;2023-07-13T06:55:01;23.00;63.60
70244;DHT22;57634;51.136;17.024;2023-07-13T06:58:02;22.80;63.80
70244;DHT22;57634;51.136;17.024;2023-07-13T07:01:05;22.40;64.40
70244;DHT22;57634;51.136;17.024;2023-07-13T07:04:06;22.10;65.00
70244;DHT22;57634;51.136;17.024;2023-07-13T07:07:08;21.80;66.00
70244;DHT22;57634;51.136;17.024;2023-07-13T07:10:10;21.50;66.80
70244;DHT22;57634;51.136;17.024;2023-07-13T07:13:15;21.30;67.50
70244;DHT22;57634;51.136;17.024;2023-07-13T07:16:17;21.10;68.10
70244;DHT22;57634;51.136;17.024;2023-07-13T07:19:45;20.90;68.60
70244;DHT22;57634;51.136;17.024;2023-07-13T07:22:47;20.70;69.40
70244;DHT22;57634;51.136;17.024;2023-07-13T07:25:49;20.60;70.00
70244;DHT22;57634;51.136;17.024;2023-07-13T07:28:50;20.50;70.60
70244;DHT22;57634;51.136;17.024;2023-07-13T07:31:52;20.40;71.00
70244;DHT22;57634;51.136;17.024;2023-07-13T07:34:53;20.30;71.60
70244;DHT22;57634;51.136;17.024;2023-07-13T07:37:55;20.20;72.10
70244;DHT22;57634;51.136;17.024;2023-07-13T07:40:56;20.20;72.60
70244;DHT22;57634;51.136;17.024;2023-07-13T07:43:57;20.20;73.00
70244;DHT22;57634;51.136;17.024;2023-07-13T07:46:58;20.10;73.30
70244;DHT22;57634;51.136;17.024;2023-07-13T07:50:00;19.90;74.10
70244;DHT22;57634;51.136;17.024;2023-07-13T07:53:01;19.80;74.50
70244;DHT22;57634;51.136;17.024;2023-07-13T07:56:03;19.70;75.10
70244;DHT22;57634;51.136;17.024;2023-07-13T07:59:05;19.70;75.60
70244;DHT22;57634;51.136;17.024;2023-07-13T08:02:32;19.80;76.10
70244;DHT22;57634;51.136;17.024;2023-07-13T08:05:36;20.00;76.70
70244;DHT22;57634;51.136;17.024;2023-07-13T08:08:37;20.30;77.00
70244;DHT22;57634;51.136;17.024;2023-07-13T08:11:39;20.70;77.50
70244;DHT22;57634;51.136;17.024;2023-07-13T08:14:40;21.60;77.10
70244;DHT22;57634;51.136;17.024;2023-07-13T08:17:41;22.50;74.40
70244;DHT22;57634;51.136;17.024;2023-07-13T08:20:43;23.30;71.50
70244;DHT22;57634;51.136;17.024;2023-07-13T08:23:46;23.90;69.10
70244;DHT22;57634;51.136;17.024;2023-07-13T08:26:47;24.40;66.50
70244;DHT22;57634;51.136;17.024;2023-07-13T08:29:49;24.70;64.50
70244;DHT22;57634;51.136;17.024;2023-07-13T08:32:53;24.80;63.10
70244;DHT22;57634;51.136;17.024;2023-07-13T08:35:54;24.70;62.80
70244;DHT22;57634;51.136;17.024;2023-07-13T08:38:55;24.50;62.20
70244;DHT22;57634;51.136;17.024;2023-07-13T08:42:33;24.40;62.40
70244;DHT22;57634;51.136;17.024;2023-07-13T08:45:43;24.20;62.60
70244;DHT22;57634;51.136;17.024;2023-07-13T08:48:54;24.00;63.10
70244;DHT22;57634;51.136;17.024;2023-07-13T08:52:12;23.90;63.30
70244;DHT22;57634;51.136;17.024;2023-07-13T08:55:16;23.80;63.70
70244;DHT22;57634;51.136;17.024;2023-07-13T08:58:46;23.80;63.60
70244;DHT22;57634;51.136;17.024;2023-07-13T09:02:00;23.90;63.40
70244;DHT22;57634;51.136;17.024;2023-07-13T09:05:10;24.20;63.00
70244;DHT22;57634;51.136;17.024;2023-07-13T09:15:30;26.70;59.80
70244;DHT22;57634;51.136;17.024;2023-07-13T09:21:38;28.90;53.10
70244;DHT22;57634;51.136;17.024;2023-07-13T09:27:58;30.10;49.60
70244;DHT22;57634;51.136;17.024;2023-07-13T09:31:33;30.50;48.20
70244;DHT22;57634;51.136;17.024;2023-07-13T09:34:35;30.80;46.40
70244;DHT22;57634;51.136;17.024;2023-07-13T09:37:37;31.00;45.50
70244;DHT22;57634;51.136;17.024;2023-07-13T09:47:16;31.80;43.30
70244;DHT22;57634;51.136;17.024;2023-07-13T09:50:44;32.00;42.70
70244;DHT22;57634;51.136;17.024;2023-07-13T09:53:47;32.00;41.40
70244;DHT22;57634;51.136;17.024;2023-07-13T09:56:59;32.00;41.00
70244;DHT22;57634;51.136;17.024;2023-07-13T10:00:01;32.00;40.80
70244;DHT22;57634;51.136;17.024;2023-07-13T10:06:19;32.00;40.50
70244;DHT22;57634;51.136;17.024;2023-07-13T10:09:23;32.00;40.60
70244;DHT22;57634;51.136;17.024;2023-07-13T10:12:52;32.00;40.60
70244;DHT22;57634;51.136;17.024;2023-07-13T10:15:54;32.00;40.30
70244;DHT22;57634;51.136;17.024;2023-07-13T10:18:59;32.00;39.30
70244;DHT22;57634;51.136;17.024;2023-07-13T10:22:14;32.00;39.00
70244;DHT22;57634;51.136;17.024;2023-07-13T10:25:19;31.80;39.00
70244;DHT22;57634;51.136;17.024;2023-07-13T10:28:34;31.40;38.90
70244;DHT22;57634;51.136;17.024;2023-07-13T10:32:11;31.00;39.80
70244;DHT22;57634;51.136;17.024;2023-07-13T10:35:15;30.80;39.40
70244;DHT22;57634;51.136;17.024;2023-07-13T10:38:22;30.60;39.80
70244;DHT22;57634;51.136;17.024;2023-07-13T10:41:27;30.40;40.50
70244;DHT22;57634;51.136;17.024;2023-07-13T10:44:32;30.20;41.20
70244;DHT22;57634;51.136;17.024;2023-07-13T10:47:33;30.00;41.50
70244;DHT22;57634;51.136;17.024;2023-07-13T10:50:37;29.90;41.70
70244;DHT22;57634;51.136;17.024;2023-07-13T10:53:39;29.90;42.10
70244;DHT22;57634;51.136;17.024;2023-07-13T10:57:18;29.90;42.10
70244;DHT22;57634;51.136;17.024;2023-07-13T11:00:21;30.00;41.50
70244;DHT22;57634;51.136;17.024;2023-07-13T11:03:25;30.00;41.20
70244;DHT22;57634;51.136;17.024;2023-07-13T11:06:37;29.90;41.20
70244;DHT22;57634;51.136;17.024;2023-07-13T11:09:50;29.70;41.80
70244;DHT22;57634;51.136;17.024;2023-07-13T11:12:53;29.50;41.80
70244;DHT22;57634;51.136;17.024;2023-07-13T11:15:55;29.40;42.00
70244;DHT22;57634;51.136;17.024;2023-07-13T11:19:27;29.30;42.10
70244;DHT22;57634;51.136;17.024;2023-07-13T11:22:47;29.20;41.80
70244;DHT22;57634;51.136;17.024;2023-07-13T11:25:51;29.00;42.30
70244;DHT22;57634;51.136;17.024;2023-07-13T11:28:53;28.90;42.80
70244;DHT22;57634;51.136;17.024;2023-07-13T11:31:56;28.80;43.30
70244;DHT22;57634;51.136;17.024;2023-07-13T11:34:58;28.80;43.50
70244;DHT22;57634;51.136;17.024;2023-07-13T11:38:01;28.80;43.50
70244;DHT22;57634;51.136;17.024;2023-07-13T11:41:52;28.80;43.60
70244;DHT22;57634;51.136;17.024;2023-07-13T11:44:45;28.80;42.80
70244;DHT22;57634;51.136;17.024;2023-07-13T11:47:48;28.70;42.80
70244;DHT22;57634;51.136;17.024;2023-07-13T11:50:54;28.70;42.90
70244;DHT22;57634;51.136;17.024;2023-07-13T11:54:02;28.80;43.00
70244;DHT22;57634;51.136;17.024;2023-07-13T12:00:43;29.10;42.90
70244;DHT22;57634;51.136;17.024;2023-07-13T12:03:48;29.30;42.60
70244;DHT22;57634;51.136;17.024;2023-07-13T12:06:58;29.30;42.30
70244;DHT22;57634;51.136;17.024;2023-07-13T12:10:15;29.30;42.30
70244;DHT22;57634;51.136;17.024;2023-07-13T12:13:15;29.30;41.70
70244;DHT22;57634;51.136;17.024;2023-07-13T12:19:56;29.40;41.10
70244;DHT22;57634;51.136;17.024;2023-07-13T12:32:40;29.60;39.40
70244;DHT22;57634;51.136;17.024;2023-07-13T12:35:49;29.60;39.20
70244;DHT22;57634;51.136;17.024;2023-07-13T12:42:34;29.50;39.50
70244;DHT22;57634;51.136;17.024;2023-07-13T12:48:54;29.60;39.00
70244;DHT22;57634;51.136;17.024;2023-07-13T12:51:58;29.70;38.70
70244;DHT22;57634;51.136;17.024;2023-07-13T12:55:16;29.80;38.20
70244;DHT22;57634;51.136;17.024;2023-07-13T12:58:42;29.80;38.00
70244;DHT22;57634;51.136;17.024;2023-07-13T13:01:48;29.70;37.90
70244;DHT22;57634;51.136;17.024;2023-07-13T13:04:51;29.70;38.00
70244;DHT22;57634;51.136;17.024;2023-07-13T13:07:52;29.60;38.00
70244;DHT22;57634;51.136;17.024;2023-07-13T13:10:54;29.40;38.10
70244;DHT22;57634;51.136;17.024;2023-07-13T13:16:34;29.20;37.90
70244;DHT22;57634;51.136;17.024;2023-07-13T13:19:36;29.00;38.50
70244;DHT22;57634;51.136;17.024;2023-07-13T13:22:37;28.80;38.70
70244;DHT22;57634;51.136;17.024;2023-07-13T13:25:39;28.70;38.40
70244;DHT22;57634;51.136;17.024;2023-07-13T13:28:40;28.60;38.60
70244;DHT22;57634;51.136;17.024;2023-07-13T13:31:42;28.50;38.80
70244;DHT22;57634;51.136;17.024;2023-07-13T13:34:44;28.30;38.60
70244;DHT22;57634;51.136;17.024;2023-07-13T13:37:47;28.10;38.50
70244;DHT22;57634;51.136;17.024;2023-07-13T13:40:52;28.10;38.70
70244;DHT22;57634;51.136;17.024;2023-07-13T13:43:53;28.00;38.70
70244;DHT22;57634;51.136;17.024;2023-07-13T13:46:56;27.90;38.60
70244;DHT22;57634;51.136;17.024;2023-07-13T13:50:25;27.90;38.70
70244;DHT22;57634;51.136;17.024;2023-07-13T13:53:26;27.80;37.40
70244;DHT22;57634;51.136;17.024;2023-07-13T13:56:29;27.80;37.20
70244;DHT22;57634;51.136;17.024;2023-07-13T13:59:30;27.70;36.70
70244;DHT22;57634;51.136;17.024;2023-07-13T14:02:38;27.70;36.40
70244;DHT22;57634;51.136;17.024;2023-07-13T14:05:40;27.60;36.20
70244;DHT22;57634;51.136;17.024;2023-07-13T14:08:42;27.60;36.50
70244;DHT22;57634;51.136;17.024;2023-07-13T14:11:47;27.60;36.40
70244;DHT22;57634;51.136;17.024;2023-07-13T14:14:50;27.60;36.40
70244;DHT22;57634;51.136;17.024;2023-07-13T14:17:52;27.70;36.50
70244;DHT22;57634;51.136;17.024;2023-07-13T14:20:55;27.70;35.40
70244;DHT22;57634;51.136;17.024;2023-07-13T14:24:22;27.60;35.20
70244;DHT22;57634;51.136;17.024;2023-07-13T14:27:25;27.70;35.40
70244;DHT22;57634;51.136;17.024;2023-07-13T14:30:27;27.70;35.10
70244;DHT22;57634;51.136;17.024;2023-07-13T14:33:28;27.70;34.70
70244;DHT22;57634;51.136;17.024;2023-07-13T14:36:33;27.70;34.60
70244;DHT22;57634;51.136;17.024;2023-07-13T14:39:35;27.70;34.40
70244;DHT22;57634;51.136;17.024;2023-07-13T14:42:36;27.80;34.00
70244;DHT22;57634;51.136;17.024;2023-07-13T14:45:41;27.80;34.20
70244;DHT22;57634;51.136;17.024;2023-07-13T14:48:44;27.90;34.20
70244;DHT22;57634;51.136;17.024;2023-07-13T14:51:45;28.00;34.00
70244;DHT22;57634;51.136;17.024;2023-07-13T14:54:46;28.20;34.10
70244;DHT22;57634;51.136;17.024;2023-07-13T14:57:48;28.30;34.10
70244;DHT22;57634;51.136;17.024;2023-07-13T15:01:17;28.40;33.80
70244;DHT22;57634;51.136;17.024;2023-07-13T15:04:18;28.50;33.20
70244;DHT22;57634;51.136;17.024;2023-07-13T15:07:20;28.60;33.40
70244;DHT22;57634;51.136;17.024;2023-07-13T15:10:24;28.70;33.70
70244;DHT22;57634;51.136;17.024;2023-07-13T15:13:26;28.80;33.80
70244;DHT22;57634;51.136;17.024;2023-07-13T15:16:30;28.90;33.60
70244;DHT22;57634;51.136;17.024;2023-07-13T15:19:32;28.90;33.50
70244;DHT22;57634;51.136;17.024;2023-07-13T15:22:34;29.00;33.40
70244;DHT22;57634;51.136;17.024;2023-07-13T15:25:35;28.90;33.40
70244;DHT22;57634;51.136;17.024;2023-07-13T15:28:37;28.70;33.70
70244;DHT22;57634;51.136;17.024;2023-07-13T15:31:38;28.60;34.20
70244;DHT22;57634;51.136;17.024;2023-07-13T15:34:40;28.50;34.80
70244;DHT22;57634;51.136;17.024;2023-07-13T15:41:25;28.20;36.30
70244;DHT22;57634;51.136;17.024;2023-07-13T15:44:31;28.20;36.70
70244;DHT22;57634;51.136;17.024;2023-07-13T15:47:33;28.10;36.90
70244;DHT22;57634;51.136;17.024;2023-07-13T15:50:42;28.00;37.20
70244;DHT22;57634;51.136;17.024;2023-07-13T15:53:47;27.90;37.60
70244;DHT22;57634;51.136;17.024;2023-07-13T15:56:55;27.90;37.90
70244;DHT22;57634;51.136;17.024;2023-07-13T16:00:26;27.80;38.00
70244;DHT22;57634;51.136;17.024;2023-07-13T16:03:28;27.70;38.60
70244;DHT22;57634;51.136;17.024;2023-07-13T16:06:36;27.60;38.80
70244;DHT22;57634;51.136;17.024;2023-07-13T16:09:41;27.50;39.10
70244;DHT22;57634;51.136;17.024;2023-07-13T16:12:43;27.40;39.00
70244;DHT22;57634;51.136;17.024;2023-07-13T16:15:45;27.20;39.30
70244;DHT22;57634;51.136;17.024;2023-07-13T16:18:47;27.10;39.50
70244;DHT22;57634;51.136;17.024;2023-07-13T16:21:50;27.00;39.60
70244;DHT22;57634;51.136;17.024;2023-07-13T16:24:52;26.90;39.70
70244;DHT22;57634;51.136;17.024;2023-07-13T16:28:24;26.90;40.00
70244;DHT22;57634;51.136;17.024;2023-07-13T16:31:32;26.80;40.10
70244;DHT22;57634;51.136;17.024;2023-07-13T16:34:35;26.70;40.40
70244;DHT22;57634;51.136;17.024;2023-07-13T16:37:38;26.70;40.30
70244;DHT22;57634;51.136;17.024;2023-07-13T16:40:40;26.70;40.40
70244;DHT22;57634;51.136;17.024;2023-07-13T16:43:43;26.80;40.30
70244;DHT22;57634;51.136;17.024;2023-07-13T16:46:51;26.80;40.20
70244;DHT22;57634;51.136;17.024;2023-07-13T16:49:56;26.70;40.10
70244;DHT22;57634;51.136;17.024;2023-07-13T16:52:59;26.70;40.20
70244;DHT22;57634;51.136;17.024;2023-07-13T16:56:28;26.70;40.10
70244;DHT22;57634;51.136;17.024;2023-07-13T16:59:32;26.70;40.20
70244;DHT22;57634;51.136;17.024;2023-07-13T17:02:37;26.80;40.20
70244;DHT22;57634;51.136;17.024;2023-07-13T17:05:44;26.70;40.30
70244;DHT22;57634;51.136;17.024;2023-07-13T17:08:47;26.70;41.10
70244;DHT22;57634;51.136;17.024;2023-07-13T17:11:48;26.50;41.70
70244;DHT22;57634;51.136;17.024;2023-07-13T17:14:51;26.40;42.10
70244;DHT22;57634;51.136;17.024;2023-07-13T17:17:53;26.20;42.50
70244;DHT22;57634;51.136;17.024;2023-07-13T17:21:34;26.10;43.10
70244;DHT22;57634;51.136;17.024;2023-07-13T17:24:36;25.90;43.40
70244;DHT22;57634;51.136;17.024;2023-07-13T17:27:38;25.80;43.50
70244;DHT22;57634;51.136;17.024;2023-07-13T17:30:42;25.70;43.70
70244;DHT22;57634;51.136;17.024;2023-07-13T17:33:45;25.60;43.70
70244;DHT22;57634;51.136;17.024;2023-07-13T17:36:47;25.60;43.40
70244;DHT22;57634;51.136;17.024;2023-07-13T17:39:49;25.70;43.30
70244;DHT22;57634;51.136;17.024;2023-07-13T17:42:51;25.60;43.10
70244;DHT22;57634;51.136;17.024;2023-07-13T17:45:56;25.50;43.40
70244;DHT22;57634;51.136;17.024;2023-07-13T17:48:58;25.40;43.60
70244;DHT22;57634;51.136;17.024;2023-07-13T17:52:00;25.30;43.80
70244;DHT22;57634;51.136;17.024;2023-07-13T17:55:33;25.20;43.80
70244;DHT22;57634;51.136;17.024;2023-07-13T17:58:36;25.10;44.00
70244;DHT22;57634;51.136;17.024;2023-07-13T18:01:38;25.10;44.30
70244;DHT22;57634;51.136;17.024;2023-07-13T18:04:41;25.00;44.60
70244;DHT22;57634;51.136;17.024;2023-07-13T18:07:44;24.90;44.80
70244;DHT22;57634;51.136;17.024;2023-07-13T18:10:47;24.80;45.20
70244;DHT22;57634;51.136;17.024;2023-07-13T18:13:48;24.80;45.70
70244;DHT22;57634;51.136;17.024;2023-07-13T18:16:57;24.70;46.00
70244;DHT22;57634;51.136;17.024;2023-07-13T18:20:02;24.70;46.20
70244;DHT22;57634;51.136;17.024;2023-07-13T18:23:36;24.70;46.40
70244;DHT22;57634;51.136;17.024;2023-07-13T18:26:38;24.60;46.90
70244;DHT22;57634;51.136;17.024;2023-07-13T18:29:41;24.60;47.50
70244;DHT22;57634;51.136;17.024;2023-07-13T18:32:50;24.50;48.20
70244;DHT22;57634;51.136;17.024;2023-07-13T18:35:55;24.50;48.80
70244;DHT22;57634;51.136;17.024;2023-07-13T18:38:57;24.50;49.30
70244;DHT22;57634;51.136;17.024;2023-07-13T18:42:07;24.40;49.70
70244;DHT22;57634;51.136;17.024;2023-07-13T18:45:14;24.30;50.00
70244;DHT22;57634;51.136;17.024;2023-07-13T18:48:43;24.20;50.40
70244;DHT22;57634;51.136;17.024;2023-07-13T18:51:48;24.20;51.20
70244;DHT22;57634;51.136;17.024;2023-07-13T18:54:51;24.20;51.70
70244;DHT22;57634;51.136;17.024;2023-07-13T18:57:54;24.10;52.10
70244;DHT22;57634;51.136;17.024;2023-07-13T19:00:56;23.90;51.80
70244;DHT22;57634;51.136;17.024;2023-07-13T19:04:26;23.70;51.90
70244;DHT22;57634;51.136;17.024;2023-07-13T19:07:14;23.50;51.70
70244;DHT22;57634;51.136;17.024;2023-07-13T19:10:17;23.30;51.80
70244;DHT22;57634;51.136;17.024;2023-07-13T19:13:48;23.20;51.20
70244;DHT22;57634;51.136;17.024;2023-07-13T19:16:58;23.00;50.90
70244;DHT22;57634;51.136;17.024;2023-07-13T19:19:59;22.90;51.30
70244;DHT22;57634;51.136;17.024;2023-07-13T19:23:04;22.70;51.80
70244;DHT22;57634;51.136;17.024;2023-07-13T19:26:18;22.70;52.40
70244;DHT22;57634;51.136;17.024;2023-07-13T19:29:23;22.60;53.00
70244;DHT22;57634;51.136;17.024;2023-07-13T19:32:26;22.50;53.50
70244;DHT22;57634;51.136;17.024;2023-07-13T19:35:27;22.50;53.90
70244;DHT22;57634;51.136;17.024;2023-07-13T19:38:55;22.40;54.50
70244;DHT22;57634;51.136;17.024;2023-07-13T19:42:01;22.40;55.50
70244;DHT22;57634;51.136;17.024;2023-07-13T19:45:04;22.20;55.40
70244;DHT22;57634;51.136;17.024;2023-07-13T19:48:08;22.10;55.60
70244;DHT22;57634;51.136;17.024;2023-07-13T19:51:15;22.00;56.00
70244;DHT22;57634;51.136;17.024;2023-07-13T19:54:18;21.90;56.10
70244;DHT22;57634;51.136;17.024;2023-07-13T19:57:25;21.90;57.20
70244;DHT22;57634;51.136;17.024;2023-07-13T20:00:27;21.90;58.50
70244;DHT22;57634;51.136;17.024;2023-07-13T20:03:29;21.80;59.00
70244;DHT22;57634;51.136;17.024;2023-07-13T20:06:57;21.70;59.80
70244;DHT22;57634;51.136;17.024;2023-07-13T20:09:59;21.70;61.50
70244;DHT22;57634;51.136;17.024;2023-07-13T20:13:00;21.60;62.40
70244;DHT22;57634;51.136;17.024;2023-07-13T20:16:02;21.40;62.50
70244;DHT22;57634;51.136;17.024;2023-07-13T20:19:04;21.40;62.20